Adams, Oklahoma
Current Conditions -  °F | °C
As of 12:15 AM on Wednesday 28 Jan 2015 (Local Time) from KLBL Reporting Station
Clear Clear  
Wind Chill:   Ceiling: Unl
Heat Index:   Visibility: 10mi
Dew Point: -1°   Wind: 12mph
Humidity: 61%   Direction: 210°SSW
Pressure: 30.01"   Gusts: NA
Location:  36.76°N, 101.08°W
Report Text: KLBL 280615Z AUTO 21010KT 10SM CLR 06/M01 A3001 RMK AO1
Loading
Personal Weather Stations






























Interactive Weather Map New forecast layout! Learn more

10-Day Weather Forecast

Advertisements
Track Severe Weather on mobile